createdAt,value
2022-12-14T00:01:48.815Z,-6.19
2022-12-14T00:04:18.171Z,-6.27
2022-12-14T00:06:46.734Z,-6.26
2022-12-14T00:09:16.422Z,-6.27
2022-12-14T00:11:44.982Z,-6.35
2022-12-14T00:14:13.195Z,-6.44
2022-12-14T00:16:41.693Z,-6.54
2022-12-14T00:19:12.802Z,-6.55
2022-12-14T00:21:41.518Z,-6.57
2022-12-14T00:24:10.484Z,-6.63
2022-12-14T00:26:40.316Z,-6.61
2022-12-14T00:29:08.591Z,-6.60
2022-12-14T00:31:37.227Z,-6.66
2022-12-14T00:34:05.580Z,-6.58
2022-12-14T00:36:36.456Z,-6.52
2022-12-14T00:39:05.629Z,-6.61
2022-12-14T00:41:34.167Z,-6.50
2022-12-14T00:44:04.049Z,-6.46
2022-12-14T00:46:32.654Z,-6.36
2022-12-14T00:49:00.937Z,-6.25
2022-12-14T00:51:29.609Z,-6.17
2022-12-14T00:53:57.820Z,-6.09
2022-12-14T00:56:26.525Z,-6.05
2022-12-14T00:58:55.045Z,-5.92
2022-12-14T01:01:25.017Z,-5.84
2022-12-14T01:04:13.689Z,-5.81
2022-12-14T01:06:42.444Z,-5.76
2022-12-14T01:09:11.184Z,-5.72
2022-12-14T01:11:42.034Z,-5.75
2022-12-14T01:14:10.491Z,-5.74
2022-12-14T01:16:40.985Z,-5.82
2022-12-14T01:19:09.303Z,-5.86
2022-12-14T01:21:37.800Z,-5.95
2022-12-14T01:24:07.221Z,-6.02
2022-12-14T01:26:39.743Z,-6.12
2022-12-14T01:29:09.217Z,-6.16
2022-12-14T01:31:39.198Z,-6.20
2022-12-14T01:34:09.298Z,-6.35
2022-12-14T01:36:39.020Z,-6.43
2022-12-14T01:39:10.625Z,-6.88
2022-12-14T01:41:40.777Z,-6.58
2022-12-14T01:44:42.104Z,-6.62
2022-12-14T01:47:19.283Z,-6.85
2022-12-14T01:49:53.643Z,-6.64
2022-12-14T01:52:27.312Z,-6.63
2022-12-14T01:55:00.442Z,-6.66
2022-12-14T01:57:32.534Z,-6.71
2022-12-14T02:00:06.895Z,-6.71
2022-12-14T02:02:39.466Z,-6.82
2022-12-14T02:05:12.964Z,-6.73
2022-12-14T02:07:43.803Z,-6.76
2022-12-14T02:10:18.149Z,-6.81
2022-12-14T02:12:49.173Z,-6.86
2022-12-14T02:15:18.148Z,-7.06
2022-12-14T02:17:47.163Z,-6.90
2022-12-14T02:20:18.140Z,-6.96
2022-12-14T02:23:18.138Z,-6.96
2022-12-14T02:26:38.126Z,-7.00
2022-12-14T02:29:38.758Z,-6.90
2022-12-14T02:32:24.054Z,-6.83
2022-12-14T02:34:59.789Z,-6.94
2022-12-14T02:37:40.013Z,-7.04
2022-12-14T02:40:34.414Z,-7.08
2022-12-14T02:43:13.067Z,-7.16
2022-12-14T02:45:48.013Z,-7.24
2022-12-14T02:48:22.809Z,-7.22
2022-12-14T02:51:00.720Z,-7.28
2022-12-14T02:53:36.118Z,-7.22
2022-12-14T02:56:10.167Z,-7.14
2022-12-14T02:58:41.482Z,-7.18
2022-12-14T03:01:15.485Z,-7.10
2022-12-14T03:03:44.303Z,-7.15
2022-12-14T03:06:15.870Z,-7.14
2022-12-14T03:08:47.513Z,-7.19
2022-12-14T03:11:20.624Z,-7.31
2022-12-14T03:13:57.274Z,-7.33
2022-12-14T03:16:31.970Z,-7.37
2022-12-14T03:19:05.131Z,-7.28
2022-12-14T03:21:37.999Z,-7.33
2022-12-14T03:24:11.211Z,-7.34
2022-12-14T03:26:51.073Z,-7.33
2022-12-14T03:29:23.757Z,-7.44
2022-12-14T03:31:57.284Z,-7.39
2022-12-14T03:34:30.776Z,-7.51
2022-12-14T03:37:07.613Z,-7.55
2022-12-14T03:39:37.315Z,-7.72
2022-12-14T03:42:12.379Z,-7.88
2022-12-14T03:44:49.531Z,-7.95
2022-12-14T03:47:33.889Z,-7.96
2022-12-14T03:50:08.131Z,-7.97
2022-12-14T03:52:41.208Z,-7.95
2022-12-14T03:55:21.799Z,-7.96
2022-12-14T03:58:10.906Z,-7.99
2022-12-14T04:00:46.361Z,-7.99
2022-12-14T04:03:25.602Z,-8.02
2022-12-14T04:05:57.169Z,-8.07
2022-12-14T04:08:33.995Z,-8.12
2022-12-14T04:11:22.035Z,-8.10
2022-12-14T04:14:17.711Z,-8.07
2022-12-14T04:17:06.841Z,-8.06
2022-12-14T04:19:43.509Z,-8.10
2022-12-14T04:22:16.730Z,-8.09
2022-12-14T04:25:07.961Z,-8.13
2022-12-14T04:27:41.327Z,-8.19
2022-12-14T04:30:11.362Z,-8.23
2022-12-14T04:32:43.971Z,-8.32
2022-12-14T04:35:19.342Z,-8.36
2022-12-14T04:37:53.344Z,-8.39
2022-12-14T04:40:25.521Z,-8.49
2022-12-14T04:42:57.152Z,-8.53
2022-12-14T04:45:29.619Z,-8.56
2022-12-14T04:48:05.746Z,-8.56
2022-12-14T04:50:40.802Z,-8.85
2022-12-14T04:53:13.357Z,-8.44
2022-12-14T04:55:48.924Z,-8.48
2022-12-14T04:58:23.019Z,-8.48
2022-12-14T05:01:09.354Z,-8.76
2022-12-14T05:03:45.843Z,-8.57
2022-12-14T05:06:22.890Z,-8.67
2022-12-14T05:09:17.863Z,-8.85
2022-12-14T05:11:54.400Z,-8.80
2022-12-14T05:14:29.756Z,-8.75
2022-12-14T05:17:02.300Z,-8.64
2022-12-14T05:19:33.444Z,-8.60
2022-12-14T05:22:08.176Z,-8.65
2022-12-14T05:24:36.949Z,-8.67
2022-12-14T05:27:05.751Z,-8.74
2022-12-14T05:29:33.977Z,-8.80
2022-12-14T05:32:03.176Z,-8.85
2022-12-14T05:34:32.111Z,-8.89
2022-12-14T05:37:00.503Z,-9.05
2022-12-14T05:39:30.153Z,-9.21
2022-12-14T05:41:58.712Z,-9.34
2022-12-14T05:44:26.927Z,-9.46
2022-12-14T05:46:55.967Z,-9.55
2022-12-14T05:49:25.388Z,-9.73
2022-12-14T05:51:53.958Z,-9.90
2022-12-14T05:54:22.334Z,-10.03
2022-12-14T05:56:52.556Z,-10.05
2022-12-14T05:59:20.835Z,-10.10
2022-12-14T06:01:51.117Z,-10.10
2022-12-14T06:04:20.610Z,-10.16
2022-12-14T06:06:50.257Z,-10.21
2022-12-14T06:09:18.588Z,-10.32
2022-12-14T06:11:48.056Z,-10.46
2022-12-14T06:14:17.620Z,-10.54
2022-12-14T06:16:47.803Z,-10.60
2022-12-14T06:19:16.667Z,-10.68
2022-12-14T06:21:45.124Z,-10.70
2022-12-14T06:24:14.399Z,-10.75
2022-12-14T06:26:43.020Z,-10.77
2022-12-14T06:29:16.044Z,-10.79
2022-12-14T06:31:49.080Z,-10.81
2022-12-14T06:34:18.484Z,-10.85
2022-12-14T06:36:48.066Z,-10.86
2022-12-14T06:39:18.061Z,-10.79
2022-12-14T06:41:50.891Z,-10.76
2022-12-14T06:44:19.268Z,-10.66
2022-12-14T06:46:49.484Z,-10.51
2022-12-14T06:49:18.428Z,-10.36
2022-12-14T06:51:46.781Z,-10.41
2022-12-14T06:54:17.148Z,-10.31
2022-12-14T06:56:47.794Z,-10.17
2022-12-14T06:59:17.955Z,-10.11
2022-12-14T07:01:49.834Z,-10.07
2022-12-14T07:04:21.407Z,-10.18
2022-12-14T07:06:50.438Z,-10.07
2022-12-14T07:09:18.724Z,-10.08
2022-12-14T07:11:47.235Z,-10.07
2022-12-14T07:14:17.923Z,-10.12
2022-12-14T07:16:48.608Z,-10.06
2022-12-14T07:19:19.519Z,-10.05
2022-12-14T07:21:48.181Z,-10.05
2022-12-14T07:24:17.568Z,-10.06
2022-12-14T07:26:46.095Z,-10.02
2022-12-14T07:29:15.145Z,-9.97
2022-12-14T07:31:43.925Z,-9.97
2022-12-14T07:34:19.546Z,-9.95
2022-12-14T07:36:51.160Z,-9.92
2022-12-14T07:39:19.556Z,-9.85
2022-12-14T07:41:50.583Z,-9.77
2022-12-14T07:44:18.800Z,-9.74
2022-12-14T07:46:48.247Z,-9.65
2022-12-14T07:49:16.462Z,-9.60
2022-12-14T07:51:46.796Z,-9.56
2022-12-14T07:54:15.337Z,-9.59
2022-12-14T07:56:44.770Z,-9.79
2022-12-14T07:59:14.647Z,-9.49
2022-12-14T08:01:44.017Z,-9.47
2022-12-14T08:04:13.388Z,-9.44
2022-12-14T08:06:42.725Z,-9.37
2022-12-14T08:09:12.784Z,-9.36
2022-12-14T08:11:41.723Z,-9.32
2022-12-14T08:14:17.080Z,-9.32
2022-12-14T08:16:46.427Z,-9.31
2022-12-14T08:19:15.147Z,-9.43
2022-12-14T08:21:43.644Z,-9.20
2022-12-14T08:24:14.464Z,-9.36
2022-12-14T08:26:43.142Z,-9.13
2022-12-14T08:29:17.491Z,-9.08
2022-12-14T08:31:46.485Z,-9.05
2022-12-14T08:34:15.898Z,-8.98
2022-12-14T08:36:44.395Z,-8.91
2022-12-14T08:39:14.524Z,-8.76
2022-12-14T08:41:43.346Z,-8.60
2022-12-14T08:44:13.197Z,-8.48
2022-12-14T08:46:42.488Z,-8.30
2022-12-14T08:49:12.717Z,-8.21
2022-12-14T08:51:42.022Z,-8.11
2022-12-14T08:54:10.288Z,-8.02
2022-12-14T08:56:40.246Z,-7.93
2022-12-14T08:59:08.692Z,-7.80
2022-12-14T09:01:37.381Z,-7.62
2022-12-14T09:04:07.903Z,-7.46
2022-12-14T09:06:38.801Z,-7.35
2022-12-14T09:09:15.728Z,-7.52
2022-12-14T09:11:49.803Z,-7.25
2022-12-14T09:14:18.045Z,-7.26
2022-12-14T09:16:46.603Z,-7.18
2022-12-14T09:19:14.879Z,-7.18
2022-12-14T09:21:43.574Z,-7.31
2022-12-14T09:24:12.053Z,-7.20
2022-12-14T09:26:40.556Z,-7.25
2022-12-14T09:29:15.449Z,-7.23
2022-12-14T09:31:45.570Z,-7.23
2022-12-14T09:34:14.079Z,-7.31
2022-12-14T09:36:43.278Z,-7.39
2022-12-14T09:39:14.879Z,-7.46
2022-12-14T09:42:10.307Z,-7.65
2022-12-14T09:44:53.327Z,-7.47
2022-12-14T09:47:30.588Z,-7.54
2022-12-14T09:50:03.329Z,-7.62
2022-12-14T09:52:38.268Z,-7.61
2022-12-14T09:55:20.048Z,-7.66
2022-12-14T09:57:51.190Z,-8.08
2022-12-14T10:00:23.562Z,-7.53
2022-12-14T10:03:10.692Z,-7.45
2022-12-14T10:05:56.079Z,-7.28
2022-12-14T10:08:30.955Z,-7.18
2022-12-14T10:11:08.053Z,-7.06
2022-12-14T10:13:50.979Z,-6.93
2022-12-14T10:16:30.506Z,-6.82
2022-12-14T10:19:17.335Z,-6.69
2022-12-14T10:21:52.458Z,-6.60
2022-12-14T10:24:25.381Z,-6.55
2022-12-14T10:26:55.090Z,-6.42
2022-12-14T10:29:35.939Z,-6.40
2022-12-14T10:32:20.415Z,-6.45
2022-12-14T10:34:49.228Z,-6.35
2022-12-14T10:37:26.810Z,-6.36
2022-12-14T10:40:11.328Z,-6.36
2022-12-14T10:42:51.640Z,-6.31
2022-12-14T10:45:42.144Z,-6.30
2022-12-14T10:48:35.384Z,-6.26
2022-12-14T10:51:09.277Z,-6.25
2022-12-14T10:53:42.461Z,-6.18
2022-12-14T10:56:18.278Z,-6.12
2022-12-14T10:59:06.616Z,-6.07
2022-12-14T11:01:35.412Z,-6.01
2022-12-14T11:04:07.212Z,-5.96
2022-12-14T11:06:36.333Z,-5.88
2022-12-14T11:09:21.693Z,-6.01
2022-12-14T11:11:50.719Z,-5.87
2022-12-14T11:14:23.543Z,-5.75
2022-12-14T11:16:52.742Z,-5.73
2022-12-14T11:19:24.665Z,-5.65
2022-12-14T11:22:08.971Z,-5.65
2022-12-14T11:24:45.141Z,-5.53
2022-12-14T11:27:18.010Z,-5.44
2022-12-14T11:29:49.365Z,-5.38
2022-12-14T11:32:25.460Z,-5.32
2022-12-14T11:34:58.523Z,-5.23
2022-12-14T11:37:28.826Z,-5.16
2022-12-14T11:40:00.425Z,-5.10
2022-12-14T11:42:29.513Z,-5.08
2022-12-14T11:45:29.858Z,-5.03
2022-12-14T11:48:24.194Z,-5.06
2022-12-14T11:50:56.296Z,-5.08
2022-12-14T11:53:25.170Z,-5.06
2022-12-14T11:55:58.149Z,-5.01
2022-12-14T11:58:32.466Z,-4.92
2022-12-14T12:01:06.062Z,-5.30
2022-12-14T12:03:38.192Z,-4.91
2022-12-14T12:06:11.125Z,-4.86
2022-12-14T12:08:41.801Z,-4.84
2022-12-14T12:11:17.828Z,-4.91
2022-12-14T12:13:48.621Z,-4.93
2022-12-14T12:16:19.851Z,-4.95
2022-12-14T12:18:52.302Z,-4.93
2022-12-14T12:21:26.280Z,-4.95
2022-12-14T12:24:05.141Z,-4.96
2022-12-14T12:26:37.772Z,-5.01
2022-12-14T12:29:19.258Z,-5.04
2022-12-14T12:31:55.803Z,-5.04
2022-12-14T12:34:30.059Z,-5.02
2022-12-14T12:37:25.746Z,-5.04
2022-12-14T12:39:59.841Z,-4.93
2022-12-14T12:42:35.889Z,-4.85
2022-12-14T12:45:13.825Z,-4.85
2022-12-14T12:47:48.076Z,-4.86
2022-12-14T12:50:19.136Z,-4.88
2022-12-14T12:53:02.780Z,-4.84
2022-12-14T12:55:36.743Z,-4.85
2022-12-14T12:58:09.997Z,-5.13
2022-12-14T13:00:41.876Z,-4.80
2022-12-14T13:03:19.722Z,-4.79
2022-12-14T13:05:49.294Z,-4.81
2022-12-14T13:08:35.345Z,-4.92
2022-12-14T13:11:29.281Z,-4.98
2022-12-14T13:14:01.212Z,-5.15
2022-12-14T13:16:34.337Z,-5.14
2022-12-14T13:19:48.245Z,-5.18
2022-12-14T13:22:05.168Z,-5.31
2022-12-14T13:24:34.795Z,-5.38
2022-12-14T13:27:27.527Z,-5.41
2022-12-14T13:30:17.599Z,-5.50
2022-12-14T13:32:58.242Z,-5.53
2022-12-14T13:35:42.809Z,-5.65
2022-12-14T13:38:34.221Z,-5.80
2022-12-14T13:41:25.489Z,-5.89
2022-12-14T13:44:33.554Z,-6.07
2022-12-14T13:47:05.769Z,-6.18
2022-12-14T13:49:36.210Z,-6.57
2022-12-14T13:52:04.725Z,-6.37
2022-12-14T13:54:35.986Z,-6.45
2022-12-14T13:57:08.753Z,-6.43
2022-12-14T13:59:42.831Z,-6.51
2022-12-14T14:02:40.304Z,-6.55
2022-12-14T14:05:46.503Z,-6.63
2022-12-14T14:08:42.011Z,-6.71
2022-12-14T14:11:44.377Z,-6.72
2022-12-14T14:14:21.505Z,-7.06
2022-12-14T14:16:57.675Z,-6.87
2022-12-14T14:19:29.851Z,-7.03
2022-12-14T14:22:22.893Z,-7.16
2022-12-14T14:24:58.443Z,-7.20
2022-12-14T14:27:32.876Z,-7.23
2022-12-14T14:30:01.971Z,-7.25
2022-12-14T14:32:39.829Z,-7.21
2022-12-14T14:35:27.184Z,-7.26
2022-12-14T14:37:59.528Z,-7.30
2022-12-14T14:41:06.550Z,-7.37
2022-12-14T14:43:29.131Z,-7.41
2022-12-14T14:46:01.834Z,-7.36
2022-12-14T14:48:36.581Z,-7.18
2022-12-14T14:51:19.221Z,-7.07
2022-12-14T14:53:50.270Z,-6.92
2022-12-14T14:56:40.288Z,-6.79
2022-12-14T14:59:33.129Z,-6.69
2022-12-14T15:02:05.401Z,-6.55
2022-12-14T15:04:45.303Z,-6.46
2022-12-14T15:07:18.825Z,-6.38
2022-12-14T15:09:53.028Z,-6.72
2022-12-14T15:12:31.409Z,-6.30
2022-12-14T15:15:03.334Z,-6.40
2022-12-14T15:17:31.930Z,-6.32
2022-12-14T15:20:03.357Z,-6.29
2022-12-14T15:22:42.468Z,-6.36
2022-12-14T15:25:16.445Z,-6.46
2022-12-14T15:27:45.177Z,-6.53
2022-12-14T15:30:23.458Z,-6.64
2022-12-14T15:32:57.794Z,-6.78
2022-12-14T15:35:33.643Z,-6.87
2022-12-14T15:38:09.634Z,-6.93
2022-12-14T15:40:38.613Z,-7.01
2022-12-14T15:43:18.726Z,-7.11
2022-12-14T15:45:50.822Z,-7.19
2022-12-14T15:48:26.120Z,-7.19
2022-12-14T15:50:59.034Z,-7.35
2022-12-14T15:53:33.026Z,-7.50
2022-12-14T15:56:11.549Z,-7.53
2022-12-14T15:58:45.333Z,-7.62
2022-12-14T16:01:20.898Z,-7.72
2022-12-14T16:03:52.099Z,-7.81
2022-12-14T16:06:26.023Z,-7.93
2022-12-14T16:09:01.965Z,-8.09
2022-12-14T16:11:37.498Z,-8.17
2022-12-14T16:14:18.949Z,-8.33
2022-12-14T16:16:48.303Z,-8.43
2022-12-14T16:19:27.070Z,-8.51
2022-12-14T16:22:21.192Z,-8.71
2022-12-14T16:25:18.137Z,-8.97
2022-12-14T16:27:50.035Z,-9.17
2022-12-14T16:30:23.202Z,-9.24
2022-12-14T16:32:54.403Z,-9.37
2022-12-14T16:35:27.289Z,-9.47
2022-12-14T16:38:07.628Z,-9.54
2022-12-14T16:40:38.661Z,-9.50
2022-12-14T16:43:08.938Z,-9.64
2022-12-14T16:46:15.127Z,-9.80
2022-12-14T16:48:50.195Z,-9.84
2022-12-14T16:51:58.338Z,-10.27
2022-12-14T16:54:26.587Z,-9.88
2022-12-14T16:56:59.179Z,-9.96
2022-12-14T16:59:37.444Z,-9.95
2022-12-14T17:02:09.327Z,-9.88
2022-12-14T17:04:40.757Z,-9.86
2022-12-14T17:07:17.468Z,-9.87
2022-12-14T17:09:47.366Z,-9.87
2022-12-14T17:12:19.485Z,-9.91
2022-12-14T17:14:50.469Z,-9.93
2022-12-14T17:17:22.484Z,-9.87
2022-12-14T17:19:52.584Z,-9.87
2022-12-14T17:22:29.384Z,-9.93
2022-12-14T17:25:02.726Z,-9.93
2022-12-14T17:27:31.470Z,-9.99
2022-12-14T17:30:02.647Z,-10.03
2022-12-14T17:32:57.913Z,-9.98
2022-12-14T17:35:34.461Z,-10.02
2022-12-14T17:38:02.755Z,-9.97
2022-12-14T17:40:32.726Z,-9.99
2022-12-14T17:43:02.311Z,-10.07
2022-12-14T17:45:32.098Z,-10.09
2022-12-14T17:48:08.240Z,-10.13
2022-12-14T17:50:37.833Z,-10.22
2022-12-14T17:53:07.790Z,-10.28
2022-12-14T17:55:40.099Z,-10.33
2022-12-14T17:58:09.142Z,-10.39
2022-12-14T18:00:55.922Z,-10.46
2022-12-14T18:03:26.400Z,-10.56
2022-12-14T18:05:55.098Z,-10.60
2022-12-14T18:08:24.788Z,-10.62
2022-12-14T18:10:57.902Z,-11.08
2022-12-14T18:13:27.496Z,-10.73
2022-12-14T18:15:56.744Z,-10.73
2022-12-14T18:18:28.801Z,-10.75
2022-12-14T18:21:00.330Z,-10.57
2022-12-14T18:23:30.688Z,-10.48
2022-12-14T18:26:03.542Z,-10.37
2022-12-14T18:28:34.267Z,-10.43
2022-12-14T18:31:09.808Z,-10.72
2022-12-14T18:33:41.604Z,-11.34
2022-12-14T18:36:13.297Z,-10.94
2022-12-14T18:38:42.995Z,-11.01
2022-12-14T18:41:21.698Z,-11.08
2022-12-14T18:43:50.492Z,-11.21
2022-12-14T18:46:19.274Z,-11.27
2022-12-14T18:48:49.574Z,-11.30
2022-12-14T18:51:23.915Z,-11.36
2022-12-14T18:53:52.760Z,-11.37
2022-12-14T18:56:24.131Z,-11.37
2022-12-14T18:58:52.682Z,-11.39
2022-12-14T19:01:24.216Z,-11.44
2022-12-14T19:03:53.358Z,-11.41
2022-12-14T19:09:12.888Z,-11.29
2022-12-14T19:11:43.801Z,-11.25
2022-12-14T19:14:13.669Z,-11.21
2022-12-14T19:16:42.331Z,-11.42
2022-12-14T19:19:13.929Z,-11.38
2022-12-14T19:21:43.971Z,-11.49
2022-12-14T19:24:16.319Z,-11.59
2022-12-14T19:26:49.532Z,-11.62
2022-12-14T19:29:18.073Z,-11.66
2022-12-14T19:31:53.115Z,-11.61
2022-12-14T19:34:24.027Z,-11.65
2022-12-14T19:36:53.051Z,-11.67
2022-12-14T19:39:24.557Z,-11.74
2022-12-14T19:41:55.917Z,-11.79
2022-12-14T19:44:26.394Z,-11.83
2022-12-14T19:46:54.975Z,-11.94
2022-12-14T19:49:23.528Z,-11.99
2022-12-14T19:51:52.679Z,-12.03
2022-12-14T19:54:22.121Z,-12.07
2022-12-14T19:56:53.208Z,-12.09
2022-12-14T19:59:24.051Z,-12.08
2022-12-14T20:01:53.972Z,-12.45
2022-12-14T20:04:23.836Z,-12.41
2022-12-14T20:06:55.109Z,-12.14
2022-12-14T20:09:25.257Z,-12.13
2022-12-14T20:11:53.765Z,-12.05
2022-12-14T20:14:23.662Z,-11.98
2022-12-14T20:16:52.707Z,-11.88
2022-12-14T20:19:21.174Z,-11.85
2022-12-14T20:21:49.795Z,-12.28
2022-12-14T20:24:18.550Z,-11.89
2022-12-14T20:26:47.450Z,-11.94
2022-12-14T20:29:18.028Z,-12.05
2022-12-14T20:31:50.427Z,-12.16
2022-12-14T20:34:19.046Z,-12.27
2022-12-14T20:36:47.594Z,-12.33
2022-12-14T20:39:15.790Z,-12.30
2022-12-14T20:41:44.583Z,-12.23
2022-12-14T20:44:15.960Z,-12.18
2022-12-14T20:46:51.923Z,-12.18
2022-12-14T20:49:23.234Z,-12.27
2022-12-14T20:51:52.065Z,-12.32
2022-12-14T20:54:22.307Z,-12.31
2022-12-14T20:56:50.896Z,-12.20
2022-12-14T20:59:19.590Z,-12.13
2022-12-14T21:01:55.507Z,-12.14
2022-12-14T21:04:25.769Z,-12.31
2022-12-14T21:06:54.320Z,-12.17
2022-12-14T21:09:22.540Z,-12.16
2022-12-14T21:12:09.264Z,-12.23
2022-12-14T21:14:39.223Z,-12.29
2022-12-14T21:17:10.114Z,-12.02
2022-12-14T21:19:38.410Z,-11.75
2022-12-14T21:22:08.720Z,-11.62
2022-12-14T21:25:01.758Z,-11.56
2022-12-14T21:27:30.221Z,-11.67
2022-12-14T21:29:58.426Z,-11.78
2022-12-14T21:32:28.970Z,-11.78
2022-12-14T21:34:57.210Z,-11.71
2022-12-14T21:37:25.722Z,-11.85
2022-12-14T21:39:55.586Z,-11.93
2022-12-14T21:42:24.803Z,-12.08
2022-12-14T21:44:54.436Z,-12.14
2022-12-14T21:47:24.574Z,-12.26
2022-12-14T21:49:54.872Z,-12.04
2022-12-14T21:52:26.010Z,-11.99
2022-12-14T21:54:54.506Z,-11.91
2022-12-14T21:57:42.155Z,-11.82
2022-12-14T22:00:13.489Z,-11.79
2022-12-14T22:02:42.775Z,-11.93
2022-12-14T22:05:13.211Z,-12.04
2022-12-14T22:07:41.962Z,-12.04
2022-12-14T22:10:10.267Z,-12.11
2022-12-14T22:12:38.825Z,-12.08
2022-12-14T22:15:08.813Z,-12.08
2022-12-14T22:17:37.343Z,-12.18
2022-12-14T22:20:06.605Z,-12.31
2022-12-14T22:22:36.792Z,-12.36
2022-12-14T22:25:05.507Z,-12.32
2022-12-14T22:27:34.135Z,-12.41
2022-12-14T22:30:04.848Z,-12.54
2022-12-14T22:32:33.926Z,-12.67
2022-12-14T22:35:02.941Z,-12.67
2022-12-14T22:37:31.520Z,-12.58
2022-12-14T22:40:01.159Z,-12.55
2022-12-14T22:42:29.919Z,-12.53
2022-12-14T22:44:58.182Z,-12.51
2022-12-14T22:47:28.991Z,-12.49
2022-12-14T22:49:57.214Z,-12.60
2022-12-14T22:52:25.684Z,-12.53
2022-12-14T22:54:54.589Z,-12.50
2022-12-14T22:57:24.839Z,-12.54
2022-12-14T22:59:56.848Z,-12.74
2022-12-14T23:02:26.042Z,-12.50
2022-12-14T23:04:54.576Z,-12.70
2022-12-14T23:07:23.148Z,-12.71
2022-12-14T23:10:09.160Z,-12.79
2022-12-14T23:12:56.526Z,-12.81
2022-12-14T23:15:42.461Z,-12.67
2022-12-14T23:18:28.638Z,-12.53
2022-12-14T23:21:14.965Z,-12.38
2022-12-14T23:24:02.890Z,-12.38
2022-12-14T23:26:48.985Z,-12.48
2022-12-14T23:29:36.229Z,-12.35
2022-12-14T23:32:22.130Z,-12.30
2022-12-14T23:35:08.150Z,-12.46
2022-12-14T23:37:54.113Z,-12.48
2022-12-14T23:40:40.012Z,-12.51
2022-12-14T23:43:34.534Z,-12.62
2022-12-14T23:46:23.881Z,-12.43
2022-12-14T23:49:15.457Z,-12.41
2022-12-14T23:52:02.216Z,-12.53
2022-12-14T23:54:47.979Z,-12.36
2022-12-14T23:57:34.150Z,-12.16
